createdAt,value
2018-03-02T00:00:32.330Z,-6.80
2018-03-02T00:03:05.976Z,-6.90
2018-03-02T00:05:39.551Z,-6.90
2018-03-02T00:08:13.080Z,-6.80
2018-03-02T00:10:46.806Z,-6.80
2018-03-02T00:13:20.387Z,-6.90
2018-03-02T00:15:54.020Z,-7.00
2018-03-02T00:18:27.658Z,-7.00
2018-03-02T00:21:02.082Z,-7.10
2018-03-02T00:23:36.602Z,-7.10
2018-03-02T00:26:10.213Z,-7.10
2018-03-02T00:28:44.625Z,-7.00
2018-03-02T00:31:18.249Z,-7.00
2018-03-02T00:33:51.897Z,-7.00
2018-03-02T00:36:25.656Z,-7.10
2018-03-02T00:39:00.144Z,-7.30
2018-03-02T00:41:34.498Z,-7.40
2018-03-02T00:44:08.058Z,-7.40
2018-03-02T00:46:42.410Z,-7.30
2018-03-02T00:49:16.097Z,-7.30
2018-03-02T00:51:49.825Z,-7.30
2018-03-02T00:54:24.218Z,-7.20
2018-03-02T00:56:57.806Z,-7.30
2018-03-02T00:59:31.418Z,-7.20
2018-03-02T01:02:05.020Z,-7.20
2018-03-02T01:04:39.339Z,-7.30
2018-03-02T01:07:12.950Z,-7.30
2018-03-02T01:09:46.632Z,-7.30
2018-03-02T01:12:20.331Z,-7.30
2018-03-02T01:14:54.861Z,-7.20
2018-03-02T01:17:28.424Z,-7.30
2018-03-02T01:20:01.934Z,-7.20
2018-03-02T01:22:36.503Z,-7.30
2018-03-02T01:25:10.090Z,-7.30
2018-03-02T01:27:44.536Z,-7.30
2018-03-02T01:30:18.043Z,-7.30
2018-03-02T01:32:51.714Z,-7.30
2018-03-02T01:35:25.397Z,-7.30
2018-03-02T01:37:58.960Z,-7.30
2018-03-02T01:40:32.641Z,-7.30
2018-03-02T01:43:06.235Z,-7.30
2018-03-02T01:45:39.915Z,-7.30
2018-03-02T01:48:13.520Z,-7.40
2018-03-02T01:50:47.225Z,-7.40
2018-03-02T01:53:20.818Z,-7.40
2018-03-02T01:55:55.243Z,-7.50
2018-03-02T01:58:28.804Z,-7.50
2018-03-02T02:01:03.160Z,-7.50
2018-03-02T02:03:36.761Z,-7.50
2018-03-02T02:06:10.339Z,-7.50
2018-03-02T02:08:44.023Z,-7.40
2018-03-02T02:11:17.654Z,-7.50
2018-03-02T02:13:51.180Z,-7.60
2018-03-02T02:16:24.757Z,-7.60
2018-03-02T02:18:59.072Z,-7.60
2018-03-02T02:21:32.679Z,-7.60
2018-03-02T02:24:06.358Z,-7.70
2018-03-02T02:26:40.152Z,-7.60
2018-03-02T02:29:13.747Z,-7.60
2018-03-02T02:31:47.377Z,-7.80
2018-03-02T02:34:20.962Z,-7.80
2018-03-02T02:36:55.314Z,-7.80
2018-03-02T02:39:28.848Z,-7.80
2018-03-02T02:42:02.422Z,-7.80
2018-03-02T02:44:36.038Z,-7.80
2018-03-02T02:47:10.537Z,-7.90
2018-03-02T02:49:44.122Z,-7.90
2018-03-02T02:52:17.721Z,-7.90
2018-03-02T02:54:51.249Z,-7.90
2018-03-02T02:57:24.962Z,-8.00
2018-03-02T02:59:58.493Z,-8.10
2018-03-02T03:02:32.952Z,-8.00
2018-03-02T03:05:06.559Z,-8.00
2018-03-02T03:07:40.144Z,-7.90
2018-03-02T03:10:13.667Z,-7.90
2018-03-02T03:12:48.175Z,-7.90
2018-03-02T03:15:21.860Z,-7.90
2018-03-02T03:17:55.497Z,-7.90
2018-03-02T03:20:29.256Z,-7.90
2018-03-02T03:23:03.709Z,-7.90
2018-03-02T03:25:37.341Z,-7.90
2018-03-02T03:28:11.451Z,-8.00
2018-03-02T03:30:45.957Z,-7.90
2018-03-02T03:33:19.553Z,-7.90
2018-03-02T03:35:53.125Z,-7.90
2018-03-02T03:38:26.680Z,-7.90
2018-03-02T03:41:00.265Z,-7.90
2018-03-02T03:43:33.883Z,-7.90
2018-03-02T03:46:07.664Z,-7.90
2018-03-02T03:48:41.289Z,-7.90
2018-03-02T03:51:14.861Z,-8.00
2018-03-02T03:53:48.609Z,-7.90
2018-03-02T03:56:22.139Z,-8.00
2018-03-02T03:58:55.728Z,-8.00
2018-03-02T04:01:29.343Z,-7.90
2018-03-02T04:04:02.868Z,-8.00
2018-03-02T04:06:36.569Z,-8.00
2018-03-02T04:09:10.158Z,-8.00
2018-03-02T04:11:44.480Z,-7.90
2018-03-02T04:14:18.060Z,-8.00
2018-03-02T04:16:51.825Z,-8.00
2018-03-02T04:19:25.499Z,-8.10
2018-03-02T04:21:59.085Z,-8.10
2018-03-02T04:24:32.724Z,-8.20
2018-03-02T04:27:06.297Z,-8.20
2018-03-02T04:29:40.729Z,-8.10
2018-03-02T04:32:14.542Z,-8.10
2018-03-02T04:34:48.391Z,-8.10
2018-03-02T04:37:22.216Z,-8.20
2018-03-02T04:39:56.732Z,-8.10
2018-03-02T04:42:30.625Z,-8.10
2018-03-02T04:45:04.382Z,-8.20
2018-03-02T04:47:38.088Z,-8.20
2018-03-02T04:50:11.819Z,-8.20
2018-03-02T04:52:45.607Z,-8.20
2018-03-02T04:55:19.304Z,-8.20
2018-03-02T04:57:52.966Z,-8.20
2018-03-02T05:00:27.403Z,-8.30
2018-03-02T05:03:01.094Z,-8.30
2018-03-02T05:05:34.663Z,-8.30
2018-03-02T05:08:08.213Z,-8.20
2018-03-02T05:10:41.808Z,-8.30
2018-03-02T05:13:15.349Z,-8.40
2018-03-02T05:15:49.644Z,-8.30
2018-03-02T05:18:23.149Z,-8.40
2018-03-02T05:20:56.831Z,-8.40
2018-03-02T05:23:30.534Z,-8.40
2018-03-02T05:26:04.127Z,-8.30
2018-03-02T05:28:38.433Z,-8.30
2018-03-02T05:31:12.086Z,-8.30
2018-03-02T05:33:45.676Z,-8.30
2018-03-02T05:36:19.294Z,-8.30
2018-03-02T05:38:53.008Z,-8.30
2018-03-02T05:41:26.748Z,-8.30
2018-03-02T05:44:00.325Z,-8.30
2018-03-02T05:46:34.069Z,-8.20
2018-03-02T05:49:07.926Z,-8.20
2018-03-02T05:51:42.488Z,-8.20
2018-03-02T05:54:17.004Z,-8.20
2018-03-02T05:56:50.611Z,-8.20
2018-03-02T05:59:24.165Z,-8.20
2018-03-02T06:01:57.818Z,-8.20
2018-03-02T06:04:31.477Z,-8.20
2018-03-02T06:07:05.125Z,-8.10
2018-03-02T06:09:38.734Z,-8.10
2018-03-02T06:12:12.427Z,-8.10
2018-03-02T06:14:46.017Z,-8.10
2018-03-02T06:17:19.616Z,-8.00
2018-03-02T06:19:53.313Z,-8.10
2018-03-02T06:22:30.519Z,-8.10
2018-03-02T06:25:04.278Z,-8.10
2018-03-02T06:27:38.093Z,-8.10
2018-03-02T06:30:12.547Z,-8.00
2018-03-02T06:32:46.320Z,-8.10
2018-03-02T06:35:20.131Z,-8.10
2018-03-02T06:37:53.904Z,-8.00
2018-03-02T06:40:27.548Z,-8.00
2018-03-02T06:43:01.401Z,-8.00
2018-03-02T06:45:35.791Z,-8.00
2018-03-02T06:48:09.513Z,-8.10
2018-03-02T06:50:43.156Z,-8.00
2018-03-02T06:53:16.720Z,-8.00
2018-03-02T06:55:51.118Z,-8.20
2018-03-02T06:58:24.706Z,-8.20
2018-03-02T07:00:58.305Z,-8.10
2018-03-02T07:03:31.920Z,-8.00
2018-03-02T07:06:05.777Z,-7.90
2018-03-02T07:08:40.124Z,-7.80
2018-03-02T07:11:13.863Z,-7.80
2018-03-02T07:13:47.562Z,-7.80
2018-03-02T07:16:21.218Z,-7.80
2018-03-02T07:18:54.821Z,-7.80
2018-03-02T07:21:28.359Z,-7.70
2018-03-02T07:24:01.944Z,-7.50
2018-03-02T07:26:35.516Z,-7.50
2018-03-02T07:29:09.219Z,-7.40
2018-03-02T07:31:42.771Z,-7.30
2018-03-02T07:34:16.382Z,-7.30
2018-03-02T07:36:49.929Z,-7.40
2018-03-02T07:39:23.591Z,-7.30
2018-03-02T07:41:57.134Z,-7.30
2018-03-02T07:44:30.889Z,-7.20
2018-03-02T07:47:05.011Z,-7.20
2018-03-02T07:49:38.810Z,-7.10
2018-03-02T07:52:12.368Z,-7.10
2018-03-02T07:54:46.076Z,-7.00
2018-03-02T07:57:19.671Z,-6.90
2018-03-02T07:59:53.193Z,-6.90
2018-03-02T08:02:27.628Z,-6.70
2018-03-02T08:05:01.430Z,-6.80
2018-03-02T08:07:35.940Z,-6.70
2018-03-02T08:10:09.534Z,-6.70
2018-03-02T08:12:43.095Z,-6.70
2018-03-02T08:15:16.649Z,-6.60
2018-03-02T08:17:50.222Z,-6.60
2018-03-02T08:20:24.534Z,-6.60
2018-03-02T08:22:58.262Z,-6.50
2018-03-02T08:25:31.851Z,-6.50
2018-03-02T08:28:05.531Z,-6.40
2018-03-02T08:30:39.294Z,-6.40
2018-03-02T08:33:13.658Z,-6.40
2018-03-02T08:35:47.217Z,-6.50
2018-03-02T08:38:20.772Z,-6.40
2018-03-02T08:40:55.290Z,-6.30
2018-03-02T08:43:28.895Z,-6.30
2018-03-02T08:46:02.497Z,-6.20
2018-03-02T08:48:36.113Z,-6.00
2018-03-02T08:51:10.411Z,-5.70
2018-03-02T08:53:44.044Z,-5.80
2018-03-02T08:56:17.604Z,-5.70
2018-03-02T08:58:51.211Z,-5.80
2018-03-02T09:01:24.846Z,-5.70
2018-03-02T09:03:58.404Z,-5.60
2018-03-02T09:06:32.849Z,-5.20
2018-03-02T09:09:06.400Z,-5.30
2018-03-02T09:11:39.914Z,-5.10
2018-03-02T09:14:13.560Z,-5.00
2018-03-02T09:16:47.178Z,-5.10
2018-03-02T09:19:20.740Z,-5.20
2018-03-02T09:21:54.458Z,-5.10
2018-03-02T09:24:28.047Z,-4.90
2018-03-02T09:27:02.415Z,-4.60
2018-03-02T09:29:36.234Z,-4.60
2018-03-02T09:32:10.013Z,-4.40
2018-03-02T09:34:43.593Z,-4.20
2018-03-02T09:37:17.201Z,-4.10
2018-03-02T09:39:51.485Z,-4.40
2018-03-02T09:42:25.240Z,-4.40
2018-03-02T09:44:58.957Z,-4.30
2018-03-02T09:47:32.717Z,-4.20
2018-03-02T09:50:06.410Z,-3.90
2018-03-02T09:52:40.128Z,-3.80
2018-03-02T09:55:14.526Z,-3.60
2018-03-02T09:57:48.246Z,-3.60
2018-03-02T10:00:21.833Z,-3.50
2018-03-02T10:02:56.155Z,-3.30
2018-03-02T10:05:29.683Z,-3.40
2018-03-02T10:08:03.360Z,-3.30
2018-03-02T10:10:36.951Z,-3.20
2018-03-02T10:13:10.550Z,-3.10
2018-03-02T10:15:44.259Z,-3.00
2018-03-02T10:18:17.791Z,-2.90
2018-03-02T10:20:52.096Z,-2.70
2018-03-02T10:23:25.680Z,-2.70
2018-03-02T10:25:59.182Z,-2.70
2018-03-02T10:28:32.817Z,-2.70
2018-03-02T10:31:07.305Z,-2.50
2018-03-02T10:33:41.049Z,-2.50
2018-03-02T10:36:15.610Z,-2.40
2018-03-02T10:38:49.361Z,-2.40
2018-03-02T10:41:23.001Z,-2.30
2018-03-02T10:43:56.621Z,-2.30
2018-03-02T10:46:35.881Z,-2.40
2018-03-02T10:49:10.280Z,-2.20
2018-03-02T10:51:44.767Z,-2.50
2018-03-02T10:54:18.340Z,-2.50
2018-03-02T10:56:51.874Z,-2.40
2018-03-02T10:59:25.449Z,-2.10
2018-03-02T11:02:05.655Z,-1.90
2018-03-02T11:04:46.586Z,-1.80
2018-03-02T11:07:20.280Z,-1.90
2018-03-02T11:09:53.821Z,-1.70
2018-03-02T11:12:28.235Z,-1.60
2018-03-02T11:15:01.834Z,-1.60
2018-03-02T11:17:35.534Z,-1.70
2018-03-02T11:20:09.264Z,-1.70
2018-03-02T11:22:42.858Z,-1.70
2018-03-02T11:25:16.465Z,-1.50
2018-03-02T11:27:50.189Z,-1.40
2018-03-02T11:30:23.746Z,-1.20
2018-03-02T11:32:57.387Z,-1.20
2018-03-02T11:35:30.975Z,-1.40
2018-03-02T11:38:05.301Z,-1.50
2018-03-02T11:40:39.674Z,-1.50
2018-03-02T11:43:13.229Z,-1.50
2018-03-02T11:45:46.922Z,-1.30
2018-03-02T11:48:20.647Z,-1.20
2018-03-02T11:50:54.321Z,-1.10
2018-03-02T11:53:28.030Z,-1.10
2018-03-02T11:56:01.646Z,-0.90
2018-03-02T11:58:35.216Z,-0.60
2018-03-02T12:01:08.741Z,-0.60
2018-03-02T12:03:42.352Z,-0.90
2018-03-02T12:06:16.075Z,-0.90
2018-03-02T12:08:50.001Z,-0.90
2018-03-02T12:11:23.593Z,-0.90
2018-03-02T12:13:57.236Z,-0.90
2018-03-02T12:16:30.985Z,-1.10
2018-03-02T12:19:04.548Z,-1.20
2018-03-02T12:21:38.171Z,-1.10
2018-03-02T12:24:11.741Z,-1.00
2018-03-02T12:26:45.279Z,-0.90
2018-03-02T12:29:19.654Z,-0.60
2018-03-02T12:31:53.998Z,-0.60
2018-03-02T12:34:28.412Z,-0.60
2018-03-02T12:37:02.117Z,-0.40
2018-03-02T12:39:35.661Z,-0.20
2018-03-02T12:42:09.399Z,-0.20
2018-03-02T12:44:43.019Z,-0.10
2018-03-02T12:47:16.645Z,-0.20
2018-03-02T12:49:50.196Z,-0.40
2018-03-02T12:52:23.844Z,-0.30
2018-03-02T12:54:57.426Z,-0.30
2018-03-02T12:57:31.028Z,-0.20
2018-03-02T13:00:04.615Z,-0.20
2018-03-02T13:02:38.982Z,0.00
2018-03-02T13:05:13.328Z,0.00
2018-03-02T13:07:46.858Z,-0.10
2018-03-02T13:10:20.414Z,0.10
2018-03-02T13:12:54.037Z,0.30
2018-03-02T13:15:27.634Z,0.30
2018-03-02T13:18:01.253Z,0.50
2018-03-02T13:20:35.763Z,0.40
2018-03-02T13:23:09.332Z,0.40
2018-03-02T13:25:42.882Z,0.20
2018-03-02T13:31:17.192Z,0.20
2018-03-02T13:34:02.785Z,-0.20
2018-03-02T13:36:36.380Z,-0.20
2018-03-02T13:39:10.013Z,-0.10
2018-03-02T13:41:55.434Z,-0.60
2018-03-02T13:44:29.004Z,-1.00
2018-03-02T13:47:02.545Z,-0.90
2018-03-02T13:49:47.879Z,-0.80
2018-03-02T13:52:21.502Z,-0.80
2018-03-02T13:54:55.861Z,-0.60
2018-03-02T13:57:41.562Z,-0.60
2018-03-02T14:00:15.887Z,-0.70
2018-03-02T14:03:01.489Z,-0.70
2018-03-02T14:05:35.087Z,-0.30
2018-03-02T14:08:08.725Z,0.10
2018-03-02T14:10:42.330Z,0.10
2018-03-02T14:13:15.897Z,0.10
2018-03-02T14:15:49.529Z,0.20
2018-03-02T14:18:23.186Z,-0.10
2018-03-02T14:20:56.728Z,-0.40
2018-03-02T14:23:30.278Z,-0.10
2018-03-02T14:26:03.866Z,0.00
2018-03-02T14:28:37.365Z,-0.10
2018-03-02T14:31:10.890Z,-0.10
2018-03-02T14:33:44.461Z,-0.10
2018-03-02T14:36:18.038Z,0.00
2018-03-02T14:38:51.659Z,0.10
2018-03-02T14:41:25.249Z,-0.20
2018-03-02T14:43:58.858Z,0.00
2018-03-02T14:46:32.384Z,-0.10
2018-03-02T14:49:05.981Z,-0.50
2018-03-02T14:51:39.534Z,-0.60
2018-03-02T14:54:13.053Z,-0.60
2018-03-02T14:56:46.674Z,-0.30
2018-03-02T14:59:20.329Z,-0.40
2018-03-02T15:01:53.894Z,-0.70
2018-03-02T15:04:28.258Z,-0.90
2018-03-02T15:07:01.913Z,-0.90
2018-03-02T15:09:35.464Z,-0.80
2018-03-02T15:12:08.984Z,-0.90
2018-03-02T15:14:42.590Z,-0.80
2018-03-02T15:17:16.900Z,-0.80
2018-03-02T15:19:50.520Z,-0.80
2018-03-02T15:22:24.073Z,-0.70
2018-03-02T15:24:57.614Z,-0.90
2018-03-02T15:27:31.193Z,-1.00
2018-03-02T15:30:05.704Z,-0.80
2018-03-02T15:32:39.312Z,-0.80
2018-03-02T15:35:12.903Z,-0.60
2018-03-02T15:37:47.231Z,-0.90
2018-03-02T15:40:21.753Z,-0.90
2018-03-02T15:42:55.321Z,-0.90
2018-03-02T15:45:28.858Z,-1.00
2018-03-02T15:48:02.426Z,-1.00
2018-03-02T15:50:35.988Z,-0.90
2018-03-02T15:53:10.364Z,-1.00
2018-03-02T15:55:43.968Z,-1.00
2018-03-02T15:58:17.575Z,-0.80
2018-03-02T16:00:51.889Z,-0.80
2018-03-02T16:03:25.502Z,-0.80
2018-03-02T16:05:59.246Z,-0.90
2018-03-02T16:08:32.990Z,-0.90
2018-03-02T16:11:07.088Z,-0.70
2018-03-02T16:13:40.758Z,-0.70
2018-03-02T16:16:14.325Z,-0.50
2018-03-02T16:18:47.909Z,-0.30
2018-03-02T16:21:21.632Z,-0.30
2018-03-02T16:23:55.463Z,-0.50
2018-03-02T16:26:29.156Z,-0.60
2018-03-02T16:29:02.722Z,-0.60
2018-03-02T16:31:36.324Z,-0.40
2018-03-02T16:34:09.874Z,-0.30
2018-03-02T16:36:44.233Z,-0.20
2018-03-02T16:39:17.982Z,-0.20
2018-03-02T16:41:51.545Z,-0.40
2018-03-02T16:44:25.079Z,-0.30
2018-03-02T16:46:58.798Z,-0.30
2018-03-02T16:49:32.372Z,-0.20
2018-03-02T16:52:05.977Z,-0.30
2018-03-02T16:54:39.486Z,-0.30
2018-03-02T16:57:13.047Z,-0.10
2018-03-02T16:59:46.578Z,-0.20
2018-03-02T17:02:20.178Z,-0.20
2018-03-02T17:04:53.752Z,-0.30
2018-03-02T17:07:27.337Z,-0.40
2018-03-02T17:10:00.917Z,-0.50
2018-03-02T17:12:34.630Z,-0.50
2018-03-02T17:15:08.249Z,-0.50
2018-03-02T17:17:41.869Z,-0.60
2018-03-02T17:20:15.465Z,-0.70
2018-03-02T17:22:49.097Z,-0.70
2018-03-02T17:25:22.689Z,-0.60
2018-03-02T17:27:56.275Z,-0.50
2018-03-02T17:30:29.821Z,-0.50
2018-03-02T17:33:03.497Z,-0.50
2018-03-02T17:35:37.059Z,-0.50
2018-03-02T17:38:10.730Z,-0.60
2018-03-02T17:40:44.243Z,-0.60
2018-03-02T17:43:17.771Z,-0.80
2018-03-02T17:45:51.328Z,-0.70
2018-03-02T17:48:24.889Z,-0.60
2018-03-02T17:50:59.344Z,-0.50
2018-03-02T17:53:33.100Z,-0.50
2018-03-02T17:56:06.670Z,-0.50
2018-03-02T17:58:40.198Z,-0.40
2018-03-02T18:01:13.804Z,-0.50
2018-03-02T18:03:47.386Z,-0.50
2018-03-02T18:06:21.002Z,-0.50
2018-03-02T18:08:54.558Z,-0.70
2018-03-02T18:11:28.072Z,-0.60
2018-03-02T18:14:01.802Z,-0.60
2018-03-02T18:16:35.336Z,-0.70
2018-03-02T18:19:08.918Z,-0.50
2018-03-02T18:21:43.405Z,-0.50
2018-03-02T18:24:17.005Z,-0.50
2018-03-02T18:26:50.550Z,-0.40
2018-03-02T18:29:25.126Z,-0.30
2018-03-02T18:31:59.628Z,-0.30
2018-03-02T18:34:33.271Z,-0.30
2018-03-02T18:37:07.111Z,-0.30
2018-03-02T18:39:40.837Z,-0.20
2018-03-02T18:42:14.458Z,-0.20
2018-03-02T18:44:48.069Z,-0.20
2018-03-02T18:47:21.691Z,-0.40
2018-03-02T18:49:55.204Z,-0.40
2018-03-02T18:52:28.816Z,-0.50
2018-03-02T18:55:02.480Z,-0.60
2018-03-02T18:57:36.099Z,-0.50
2018-03-02T19:00:09.642Z,-0.50
2018-03-02T19:02:43.199Z,-0.40
2018-03-02T19:05:17.662Z,-0.40
2018-03-02T19:07:51.492Z,-0.40
2018-03-02T19:10:25.813Z,-0.40
2018-03-02T19:13:00.155Z,-0.30
2018-03-02T19:15:33.819Z,-0.30
2018-03-02T19:18:07.570Z,-0.40
2018-03-02T19:20:41.130Z,-0.40
2018-03-02T19:23:14.737Z,-0.40
2018-03-02T19:25:48.333Z,-0.30
2018-03-02T19:28:22.051Z,-0.30
2018-03-02T19:30:56.351Z,-0.40
2018-03-02T19:33:30.148Z,-0.40
2018-03-02T19:36:03.741Z,-0.40
2018-03-02T19:38:38.190Z,-0.40
2018-03-02T19:41:11.952Z,-0.40
2018-03-02T19:43:46.222Z,-0.40
2018-03-02T19:46:20.636Z,-0.40
2018-03-02T19:48:54.343Z,-0.40
2018-03-02T19:51:27.914Z,-0.40
2018-03-02T19:54:01.577Z,-0.40
2018-03-02T19:56:35.261Z,-0.40
2018-03-02T19:59:09.694Z,-0.40
2018-03-02T20:01:43.289Z,-0.40
2018-03-02T20:04:16.881Z,-0.40
2018-03-02T20:06:50.450Z,-0.40
2018-03-02T20:09:23.948Z,-0.40
2018-03-02T20:11:57.547Z,-0.40
2018-03-02T20:14:31.143Z,-0.40
2018-03-02T20:17:05.494Z,-0.40
2018-03-02T20:19:39.018Z,-0.40
2018-03-02T20:22:12.776Z,-0.40
2018-03-02T20:24:46.395Z,-0.40
2018-03-02T20:27:19.924Z,-0.40
2018-03-02T20:29:53.516Z,-0.40
2018-03-02T20:32:27.170Z,-0.50
2018-03-02T20:35:00.780Z,-0.50
2018-03-02T20:37:34.378Z,-0.50
2018-03-02T20:40:07.938Z,-0.60
2018-03-02T20:42:41.591Z,-0.60
2018-03-02T20:45:15.283Z,-0.70
2018-03-02T20:47:48.895Z,-0.70
2018-03-02T20:50:22.497Z,-0.80
2018-03-02T20:52:56.086Z,-0.90
2018-03-02T20:55:29.704Z,-0.80
2018-03-02T20:58:03.322Z,-0.80
2018-03-02T21:00:36.851Z,-0.80
2018-03-02T21:03:10.401Z,-0.70
2018-03-02T21:05:43.977Z,-0.60
2018-03-02T21:08:17.574Z,-0.60
2018-03-02T21:10:51.130Z,-0.50
2018-03-02T21:13:24.682Z,-0.50
2018-03-02T21:15:58.286Z,-0.40
2018-03-02T21:18:31.822Z,-0.40
2018-03-02T21:21:05.472Z,-0.40
2018-03-02T21:23:39.010Z,-0.40
2018-03-02T21:26:12.543Z,-0.50
2018-03-02T21:28:46.117Z,-0.40
2018-03-02T21:31:19.677Z,-0.40
2018-03-02T21:33:53.389Z,-0.50
2018-03-02T21:36:27.234Z,-0.60
2018-03-02T21:39:01.538Z,-0.70
2018-03-02T21:41:35.131Z,-0.80
2018-03-02T21:44:09.435Z,-0.80
2018-03-02T21:46:43.029Z,-0.80
2018-03-02T21:49:16.754Z,-0.70
2018-03-02T21:51:50.365Z,-0.70
2018-03-02T21:54:23.873Z,-0.70
2018-03-02T21:56:57.418Z,-0.60
2018-03-02T21:59:30.929Z,-0.80
2018-03-02T22:02:04.510Z,-1.00
2018-03-02T22:04:38.076Z,-1.00
2018-03-02T22:07:12.461Z,-1.00
2018-03-02T22:09:46.026Z,-1.00
2018-03-02T22:12:19.668Z,-1.00
2018-03-02T22:14:53.338Z,-0.90
2018-03-02T22:17:26.907Z,-0.90
2018-03-02T22:20:00.458Z,-0.90
2018-03-02T22:22:34.044Z,-0.80
2018-03-02T22:25:07.643Z,-0.80
2018-03-02T22:27:41.157Z,-0.90
2018-03-02T22:30:14.742Z,-1.00
2018-03-02T22:32:49.134Z,-1.00
2018-03-02T22:35:22.706Z,-1.00
2018-03-02T22:37:56.217Z,-0.90
2018-03-02T22:40:29.803Z,-0.80
2018-03-02T22:43:03.369Z,-0.80
2018-03-02T22:45:36.917Z,-0.70
2018-03-02T22:48:10.786Z,-0.70
2018-03-02T22:50:44.388Z,-0.60
2018-03-02T22:53:17.994Z,-0.70
2018-03-02T22:55:51.566Z,-0.70
2018-03-02T22:58:25.843Z,-0.60
2018-03-02T23:00:59.454Z,-0.60
2018-03-02T23:03:33.113Z,-0.60
2018-03-02T23:06:06.670Z,-0.50
2018-03-02T23:08:40.339Z,-0.50
2018-03-02T23:11:13.912Z,-0.40
2018-03-02T23:13:48.444Z,-0.40
2018-03-02T23:16:21.966Z,-0.40
2018-03-02T23:18:55.534Z,-0.40
2018-03-02T23:21:29.129Z,-0.40
2018-03-02T23:24:02.916Z,-0.40
2018-03-02T23:26:36.718Z,-0.40
2018-03-02T23:29:10.628Z,-0.50
2018-03-02T23:31:44.450Z,-0.60
2018-03-02T23:34:18.782Z,-0.70
2018-03-02T23:36:52.483Z,-0.80
2018-03-02T23:39:26.058Z,-0.90
2018-03-02T23:41:59.614Z,-0.90
2018-03-02T23:44:33.144Z,-0.90
2018-03-02T23:47:06.661Z,-0.80
2018-03-02T23:49:40.208Z,-0.90
2018-03-02T23:52:14.488Z,-0.80
2018-03-02T23:54:48.093Z,-0.80
2018-03-02T23:57:21.629Z,-0.70
2018-03-02T23:59:55.182Z,-0.70
